Narrabri West, New South Wales

3:26 AM AEDT on January 30, 2015 (GMT +1100)
Moree | Change Station
CLOSE
Current Station
Airport
Location: Moree Airport, NSW,
Elevation: 699 ft
Nearby Weather Stations

Elev 699 ft 29.50 °S, 149.85 °E | Updated 26 minutes ago

Clear
Clear
64 °F
Feels Like 64 °F
N
0
Wind Variable Wind from North

Today
High -- | Low -- °F
--% Chance of Precip.
Yesterday
High -- | Low -- °F
Precip. -- in
6:26 AM 8:01 PM
Waxing Gibbous, 75% visible
Pressure 29.77 in
Visibility 6.2 miles
Clouds
Dew Point 54 °F
Humidity 68%
Rainfall 0.00 in
Snow Depth Not available.
UV Not available.
Pollen Not available.
Air Quality Not available.
Flu Activity Not available.
METAR YMOR 291600Z AUTO 00000KT 9999 // NCD 18/12 Q1008

More Conditions Fewer Conditions

Pressure 29.77 in
Visibility 6.2 miles
Clouds
Dew Point 54 °F
Humidity 68%
Rainfall 0.00 in
Snow Depth Not available.
UV Not available.
Pollen Not available.
Air Quality Not available.
Flu Activity Not available.
METAR YMOR 291600Z AUTO 00000KT 9999 // NCD 18/12 Q1008

More Conditions Fewer Conditions

10-Day Weather Forecast

Almanac

Astronomy

Jan. 30, 2015 Rise Set
Actual Time
Civil Twilight
Nautical Twilight
Astronomical Twilight
Moon
Length of Visible Light
Length of Day
Tomorrow will be .
, % of the Moon is Illuminated

Today's Extremes

Country Highs Country Lows

Community

WunderPhotos

Upload Photos

1,791,466 photos uploaded!

WunderBlogs® & News

Nearby

Air Quality

  Air Quality AQ Index Pollutant
Not available.

Snow Depth

Station Depth Elevation

Earthquake Activity

City Distance Mag. Time & Date
Minimum magnitude displayed is 2.5.

Coastal Water Temperatures

Place Temperature

Nearby Weather Stations